createdAt,value
2023-01-21T00:01:14.789Z,2.18
2023-01-21T00:03:42.498Z,2.19
2023-01-21T00:06:09.701Z,2.19
2023-01-21T00:08:37.178Z,2.20
2023-01-21T00:11:08.762Z,2.20
2023-01-21T00:13:36.408Z,2.19
2023-01-21T00:16:05.360Z,2.20
2023-01-21T00:18:32.642Z,2.15
2023-01-21T00:21:00.042Z,2.14
2023-01-21T00:23:27.652Z,2.10
2023-01-21T00:26:03.158Z,2.09
2023-01-21T00:28:32.705Z,2.06
2023-01-21T00:31:02.838Z,2.03
2023-01-21T00:33:31.769Z,2.00
2023-01-21T00:36:13.211Z,1.99
2023-01-21T00:38:40.729Z,1.98
2023-01-21T00:41:13.310Z,1.98
2023-01-21T00:43:43.945Z,1.94
2023-01-21T00:46:11.584Z,1.92
2023-01-21T00:48:39.111Z,1.94
2023-01-21T00:51:06.916Z,1.92
2023-01-21T00:53:38.342Z,1.90
2023-01-21T00:56:08.247Z,1.89
2023-01-21T00:58:35.870Z,1.87
2023-01-21T01:01:11.151Z,1.87
2023-01-21T01:03:39.584Z,1.88
2023-01-21T01:06:19.971Z,1.89
2023-01-21T01:08:49.591Z,1.88
2023-01-21T01:11:18.411Z,1.90
2023-01-21T01:13:45.442Z,1.87
2023-01-21T01:16:15.460Z,1.86
2023-01-21T01:18:42.965Z,1.86
2023-01-21T01:21:16.824Z,1.86
2023-01-21T01:23:44.768Z,1.86
2023-01-21T01:26:15.440Z,1.87
2023-01-21T01:28:43.015Z,1.86
2023-01-21T01:31:14.439Z,1.86
2023-01-21T01:33:42.502Z,1.84
2023-01-21T01:36:19.258Z,1.80
2023-01-21T01:38:46.881Z,1.78
2023-01-21T01:41:24.827Z,1.77
2023-01-21T01:44:03.124Z,1.75
2023-01-21T01:46:33.693Z,1.74
2023-01-21T01:49:11.693Z,1.70
2023-01-21T01:51:48.888Z,1.68
2023-01-21T01:54:23.633Z,1.67
2023-01-21T01:56:55.700Z,1.66
2023-01-21T01:59:23.211Z,1.63
2023-01-21T02:01:50.212Z,1.64
2023-01-21T02:04:25.348Z,1.62
2023-01-21T02:06:54.954Z,1.62
2023-01-21T02:09:22.111Z,1.61
2023-01-21T02:11:49.449Z,1.58
2023-01-21T02:14:16.764Z,1.57
2023-01-21T02:16:55.513Z,1.55
2023-01-21T02:19:50.112Z,1.54
2023-01-21T02:22:32.487Z,1.53
2023-01-21T02:25:40.717Z,1.50
2023-01-21T02:28:37.007Z,1.49
2023-01-21T02:31:25.388Z,1.47
2023-01-21T02:34:10.554Z,1.45
2023-01-21T02:36:43.528Z,1.45
2023-01-21T02:39:35.191Z,1.43
2023-01-21T02:42:22.257Z,1.44
2023-01-21T02:45:32.279Z,1.45
2023-01-21T02:48:07.901Z,1.45
2023-01-21T02:50:44.473Z,1.44
2023-01-21T02:53:31.293Z,1.42
2023-01-21T02:56:06.699Z,1.42
2023-01-21T02:58:41.840Z,1.40
2023-01-21T03:01:17.623Z,1.40
2023-01-21T03:03:56.125Z,1.40
2023-01-21T03:06:32.421Z,1.39
2023-01-21T03:09:20.680Z,1.39
2023-01-21T03:12:10.172Z,1.37
2023-01-21T03:15:22.296Z,1.36
2023-01-21T03:18:03.444Z,1.35
2023-01-21T03:20:39.752Z,1.34
2023-01-21T03:23:17.640Z,1.34
2023-01-21T03:25:47.462Z,1.34
2023-01-21T03:28:21.819Z,1.33
2023-01-21T03:30:57.139Z,1.32
2023-01-21T03:33:25.117Z,1.33
2023-01-21T03:35:55.848Z,1.31
2023-01-21T03:38:30.352Z,1.28
2023-01-21T03:41:17.950Z,1.27
2023-01-21T03:43:45.695Z,1.27
2023-01-21T03:46:31.763Z,1.28
2023-01-21T03:49:17.036Z,1.25
2023-01-21T03:51:52.608Z,1.23
2023-01-21T03:54:19.748Z,1.22
2023-01-21T03:56:46.726Z,1.19
2023-01-21T03:59:13.751Z,1.17
2023-01-21T04:01:41.769Z,1.17
2023-01-21T04:04:09.824Z,1.16
2023-01-21T04:06:37.175Z,1.14
2023-01-21T04:09:06.177Z,1.13
2023-01-21T04:11:34.210Z,1.13
2023-01-21T04:14:01.348Z,1.11
2023-01-21T04:16:29.092Z,1.11
2023-01-21T04:18:56.108Z,1.07
2023-01-21T04:21:23.084Z,1.06
2023-01-21T04:23:49.964Z,1.05
2023-01-21T04:26:16.975Z,1.05
2023-01-21T04:28:43.984Z,1.04
2023-01-21T04:31:10.981Z,1.03
2023-01-21T04:33:38.292Z,1.01
2023-01-21T04:36:05.890Z,0.98
2023-01-21T04:38:32.993Z,0.97
2023-01-21T04:41:00.159Z,0.95
2023-01-21T04:43:27.315Z,0.93
2023-01-21T04:45:54.287Z,0.92
2023-01-21T04:48:21.351Z,0.91
2023-01-21T04:50:48.321Z,0.90
2023-01-21T04:53:15.361Z,0.87
2023-01-21T04:55:42.223Z,0.86
2023-01-21T04:58:09.379Z,0.84
2023-01-21T05:00:36.695Z,0.83
2023-01-21T05:03:04.637Z,0.85
2023-01-21T05:05:31.771Z,0.87
2023-01-21T05:07:58.829Z,0.85
2023-01-21T05:10:25.850Z,0.87
2023-01-21T05:12:52.814Z,0.89
2023-01-21T05:15:20.079Z,0.91
2023-01-21T05:17:47.052Z,0.90
2023-01-21T05:20:14.831Z,0.87
2023-01-21T05:22:41.914Z,0.87
2023-01-21T05:25:09.064Z,0.85
2023-01-21T05:27:36.087Z,0.85
2023-01-21T05:30:03.910Z,0.83
2023-01-21T05:32:30.955Z,0.82
2023-01-21T05:34:57.907Z,0.81
2023-01-21T05:37:24.805Z,0.81
2023-01-21T05:39:51.762Z,0.81
2023-01-21T05:42:18.698Z,0.78
2023-01-21T05:44:45.634Z,0.78
2023-01-21T05:47:12.737Z,0.78
2023-01-21T05:49:39.755Z,0.76
2023-01-21T05:52:06.972Z,0.70
2023-01-21T05:54:34.045Z,0.65
2023-01-21T05:57:01.005Z,0.59
2023-01-21T05:59:28.747Z,0.58
2023-01-21T06:01:55.822Z,0.56
2023-01-21T06:04:28.356Z,0.57
2023-01-21T06:06:55.536Z,0.53
2023-01-21T06:09:22.685Z,0.51
2023-01-21T06:11:49.811Z,0.50
2023-01-21T06:14:16.793Z,0.46
2023-01-21T06:16:43.833Z,0.46
2023-01-21T06:19:10.809Z,0.42
2023-01-21T06:21:37.799Z,0.39
2023-01-21T06:24:05.271Z,0.39
2023-01-21T06:26:34.092Z,0.43
2023-01-21T06:29:01.226Z,0.36
2023-01-21T06:31:28.334Z,0.34
2023-01-21T06:33:55.372Z,0.31
2023-01-21T06:36:22.319Z,0.26
2023-01-21T06:38:49.373Z,0.24
2023-01-21T06:41:17.067Z,0.26
2023-01-21T06:43:44.070Z,0.26
2023-01-21T06:46:11.424Z,0.25
2023-01-21T06:48:38.478Z,0.26
2023-01-21T06:51:05.743Z,0.25
2023-01-21T06:53:32.743Z,0.22
2023-01-21T06:55:59.764Z,0.22
2023-01-21T06:58:27.075Z,0.20
2023-01-21T07:00:57.073Z,0.15
2023-01-21T07:03:23.997Z,0.14
2023-01-21T07:05:51.314Z,0.12
2023-01-21T07:08:18.498Z,0.10
2023-01-21T07:10:47.691Z,0.09
2023-01-21T07:13:15.065Z,0.08
2023-01-21T07:15:42.211Z,0.05
2023-01-21T07:18:09.226Z,0.07
2023-01-21T07:20:36.317Z,0.07
2023-01-21T07:23:05.948Z,0.15
2023-01-21T07:25:36.157Z,0.12
2023-01-21T07:28:03.712Z,0.09
2023-01-21T07:30:30.697Z,0.12
2023-01-21T07:32:57.678Z,0.14
2023-01-21T07:35:24.755Z,0.17
2023-01-21T07:37:51.744Z,0.22
2023-01-21T07:40:19.400Z,0.26
2023-01-21T07:42:53.336Z,0.29
2023-01-21T07:45:21.773Z,0.31
2023-01-21T07:47:49.491Z,0.32
2023-01-21T07:50:17.018Z,0.32
2023-01-21T07:52:44.005Z,0.35
2023-01-21T07:55:12.580Z,0.39
2023-01-21T07:57:40.294Z,0.39
2023-01-21T08:00:11.140Z,0.43
2023-01-21T08:02:41.565Z,0.47
2023-01-21T08:05:10.071Z,0.50
2023-01-21T08:07:37.267Z,0.50
2023-01-21T08:10:05.073Z,0.54
2023-01-21T08:12:32.367Z,0.55
2023-01-21T08:14:59.449Z,0.55
2023-01-21T08:17:27.124Z,0.55
2023-01-21T08:19:54.221Z,0.49
2023-01-21T08:22:21.255Z,0.47
2023-01-21T08:24:48.200Z,0.52
2023-01-21T08:27:15.125Z,0.54
2023-01-21T08:29:42.199Z,0.52
2023-01-21T08:32:09.392Z,0.53
2023-01-21T08:34:36.577Z,0.54
2023-01-21T08:37:03.745Z,0.62
2023-01-21T08:39:31.118Z,0.58
2023-01-21T08:41:58.206Z,0.58
2023-01-21T08:44:25.178Z,0.66
2023-01-21T08:46:52.366Z,0.66
2023-01-21T08:49:19.650Z,0.58
2023-01-21T08:51:46.848Z,0.58
2023-01-21T08:54:13.994Z,0.53
2023-01-21T08:56:41.071Z,0.73
2023-01-21T08:59:08.378Z,0.78
2023-01-21T09:01:37.983Z,0.79
2023-01-21T09:04:05.165Z,0.83
2023-01-21T09:06:32.412Z,0.87
2023-01-21T09:08:59.418Z,0.95
2023-01-21T09:11:27.477Z,0.95
2023-01-21T09:13:54.645Z,0.97
2023-01-21T09:16:23.261Z,1.01
2023-01-21T09:18:50.444Z,1.05
2023-01-21T09:21:17.768Z,1.08
2023-01-21T09:23:44.912Z,1.11
2023-01-21T09:26:23.126Z,1.10
2023-01-21T09:28:57.804Z,1.19
2023-01-21T09:31:27.902Z,1.28
2023-01-21T09:33:59.522Z,1.34
2023-01-21T09:36:30.463Z,1.35
2023-01-21T09:38:58.848Z,1.39
2023-01-21T09:41:41.184Z,1.38
2023-01-21T09:44:44.849Z,1.52
2023-01-21T09:47:24.565Z,1.54
2023-01-21T09:50:19.056Z,1.57
2023-01-21T09:52:52.680Z,1.62
2023-01-21T09:55:46.851Z,1.56
2023-01-21T09:58:37.652Z,1.54
2023-01-21T10:01:15.905Z,1.69
2023-01-21T10:03:56.835Z,1.82
2023-01-21T10:06:51.982Z,1.86
2023-01-21T10:09:25.244Z,2.00
2023-01-21T10:12:49.337Z,1.93
2023-01-21T10:15:50.111Z,2.05
2023-01-21T10:18:30.876Z,2.10
2023-01-21T10:21:08.204Z,2.15
2023-01-21T10:23:47.689Z,2.14
2023-01-21T10:26:15.768Z,2.16
2023-01-21T10:28:54.558Z,2.25
2023-01-21T10:31:26.469Z,2.27
2023-01-21T10:33:53.861Z,2.32
2023-01-21T10:36:52.560Z,2.34
2023-01-21T10:39:35.087Z,2.48
2023-01-21T10:42:18.449Z,2.49
2023-01-21T10:45:03.949Z,2.54
2023-01-21T10:47:42.910Z,2.63
2023-01-21T10:50:15.742Z,2.70
2023-01-21T10:53:03.517Z,2.69
2023-01-21T10:55:51.541Z,2.76
2023-01-21T10:58:51.259Z,2.80
2023-01-21T11:01:28.492Z,2.92
2023-01-21T11:04:00.322Z,2.82
2023-01-21T11:06:32.323Z,2.91
2023-01-21T11:09:04.084Z,2.92
2023-01-21T11:11:35.412Z,2.97
2023-01-21T11:14:02.579Z,3.00
2023-01-21T11:16:48.244Z,3.08
2023-01-21T11:19:27.745Z,3.18
2023-01-21T11:22:00.945Z,3.24
2023-01-21T11:24:29.920Z,3.27
2023-01-21T11:27:00.831Z,3.36
2023-01-21T11:29:40.437Z,3.45
2023-01-21T11:32:21.580Z,3.54
2023-01-21T11:34:57.529Z,3.64
2023-01-21T11:37:28.092Z,3.67
2023-01-21T11:40:07.833Z,3.75
2023-01-21T11:42:48.388Z,3.88
2023-01-21T11:45:32.861Z,3.93
2023-01-21T11:48:01.299Z,3.99
2023-01-21T11:50:39.623Z,4.03
2023-01-21T11:53:07.792Z,4.07
2023-01-21T11:55:53.341Z,4.13
2023-01-21T11:58:35.925Z,4.16
2023-01-21T12:01:08.041Z,4.19
2023-01-21T12:03:49.536Z,4.27
2023-01-21T12:06:27.486Z,4.29
2023-01-21T12:09:00.374Z,4.24
2023-01-21T12:11:29.758Z,4.31
2023-01-21T12:14:26.724Z,4.29
2023-01-21T12:17:22.043Z,4.31
2023-01-21T12:20:19.541Z,4.33
2023-01-21T12:23:02.710Z,4.34
2023-01-21T12:25:43.407Z,4.37
2023-01-21T12:28:51.030Z,4.39
2023-01-21T12:31:34.281Z,4.40
2023-01-21T12:34:22.059Z,4.42
2023-01-21T12:36:59.431Z,4.47
2023-01-21T12:39:32.557Z,4.49
2023-01-21T12:42:11.794Z,4.55
2023-01-21T12:44:52.949Z,4.60
2023-01-21T12:47:23.982Z,4.63
2023-01-21T12:50:41.192Z,4.67
2023-01-21T12:53:22.477Z,4.67
2023-01-21T12:55:58.226Z,4.69
2023-01-21T12:58:32.203Z,4.71
2023-01-21T13:01:15.809Z,4.78
2023-01-21T13:04:37.053Z,4.84
2023-01-21T13:08:01.929Z,4.92
2023-01-21T13:10:37.859Z,5.00
2023-01-21T13:13:17.730Z,5.00
2023-01-21T13:15:50.421Z,5.01
2023-01-21T13:18:25.971Z,5.03
2023-01-21T13:21:00.739Z,5.03
2023-01-21T13:23:58.679Z,5.01
2023-01-21T13:27:20.838Z,5.00
2023-01-21T13:30:34.386Z,4.96
2023-01-21T13:33:25.046Z,4.95
2023-01-21T13:36:11.183Z,4.95
2023-01-21T13:39:00.116Z,4.92
2023-01-21T13:45:07.565Z,4.96
2023-01-21T13:47:56.487Z,5.02
2023-01-21T13:51:08.432Z,5.09
2023-01-21T13:54:03.915Z,5.15
2023-01-21T13:57:28.978Z,5.20
2023-01-21T14:00:08.171Z,5.27
2023-01-21T14:03:00.166Z,5.33
2023-01-21T14:05:42.983Z,5.39
2023-01-21T14:08:25.809Z,5.44
2023-01-21T14:10:59.625Z,5.48
2023-01-21T14:14:07.272Z,5.57
2023-01-21T14:16:34.226Z,5.60
2023-01-21T14:19:13.275Z,5.66
2023-01-21T14:22:08.094Z,5.70
2023-01-21T14:24:58.931Z,5.76
2023-01-21T14:28:11.022Z,5.76
2023-01-21T14:31:02.837Z,5.76
2023-01-21T14:33:45.897Z,5.75
2023-01-21T14:36:26.459Z,5.70
2023-01-21T14:39:32.211Z,5.70
2023-01-21T14:42:05.372Z,5.73
2023-01-21T14:44:38.187Z,5.77
2023-01-21T14:47:24.459Z,5.77
2023-01-21T14:49:54.191Z,5.75
2023-01-21T14:52:30.440Z,5.74
2023-01-21T14:54:58.242Z,5.70
2023-01-21T14:57:41.510Z,5.68
2023-01-21T15:00:17.401Z,5.63
2023-01-21T15:02:55.040Z,5.60
2023-01-21T15:05:33.457Z,5.55
2023-01-21T15:08:28.671Z,5.54
2023-01-21T15:11:02.291Z,5.52
2023-01-21T15:13:39.110Z,5.47
2023-01-21T15:16:17.118Z,5.45
2023-01-21T15:19:24.919Z,5.41
2023-01-21T15:22:41.206Z,5.36
2023-01-21T15:25:15.060Z,5.30
2023-01-21T15:28:25.033Z,5.27
2023-01-21T15:31:04.881Z,5.22
2023-01-21T15:33:38.301Z,5.18
2023-01-21T15:36:19.271Z,5.14
2023-01-21T15:38:46.955Z,5.10
2023-01-21T15:41:33.730Z,5.08
2023-01-21T15:44:44.476Z,5.05
2023-01-21T15:47:11.385Z,5.00
2023-01-21T15:50:41.245Z,4.97
2023-01-21T15:53:31.265Z,4.89
2023-01-21T15:56:26.296Z,4.82
2023-01-21T15:59:11.867Z,4.72
2023-01-21T16:01:39.998Z,4.67
2023-01-21T16:04:25.686Z,4.61
2023-01-21T16:07:33.089Z,4.55
2023-01-21T16:10:40.114Z,4.50
2023-01-21T16:13:32.288Z,4.41
2023-01-21T16:16:21.070Z,4.36
2023-01-21T16:19:00.880Z,4.29
2023-01-21T16:21:34.315Z,4.24
2023-01-21T16:24:19.060Z,4.19
2023-01-21T16:26:46.184Z,4.12
2023-01-21T16:29:15.105Z,4.11
2023-01-21T16:31:51.657Z,4.05
2023-01-21T16:34:30.834Z,3.99
2023-01-21T16:36:58.262Z,3.93
2023-01-21T16:39:26.137Z,3.88
2023-01-21T16:42:05.609Z,3.84
2023-01-21T16:44:34.436Z,3.81
2023-01-21T16:47:03.125Z,3.75
2023-01-21T16:49:30.134Z,3.73
2023-01-21T16:52:03.343Z,3.71
2023-01-21T16:54:33.589Z,3.68
2023-01-21T16:57:21.194Z,3.68
2023-01-21T16:59:48.835Z,3.66
2023-01-21T17:02:20.882Z,3.64
2023-01-21T17:04:48.675Z,3.63
2023-01-21T17:07:27.069Z,3.63
2023-01-21T17:10:00.178Z,3.62
2023-01-21T17:12:29.207Z,3.60
2023-01-21T17:15:01.645Z,3.57
2023-01-21T17:17:35.757Z,3.56
2023-01-21T17:20:03.452Z,3.51
2023-01-21T17:22:35.201Z,3.50
2023-01-21T17:25:08.537Z,3.49
2023-01-21T17:27:44.728Z,3.48
2023-01-21T17:30:32.032Z,3.48
2023-01-21T17:33:02.173Z,3.48
2023-01-21T17:35:32.957Z,3.46
2023-01-21T17:38:02.960Z,3.47
2023-01-21T17:40:45.695Z,3.48
2023-01-21T17:43:23.499Z,3.48
2023-01-21T17:45:55.193Z,3.48
2023-01-21T17:48:39.190Z,3.46
2023-01-21T17:51:13.758Z,3.45
2023-01-21T17:53:53.747Z,3.46
2023-01-21T17:56:40.617Z,3.46
2023-01-21T17:59:38.270Z,3.42
2023-01-21T18:02:14.207Z,3.46
2023-01-21T18:04:43.151Z,3.46
2023-01-21T18:07:32.766Z,3.50
2023-01-21T18:10:02.723Z,3.53
2023-01-21T18:12:30.291Z,3.58
2023-01-21T18:14:58.498Z,3.60
2023-01-21T18:17:26.026Z,3.64
2023-01-21T18:19:53.829Z,3.64
2023-01-21T18:22:30.567Z,3.64
2023-01-21T18:24:57.629Z,3.64
2023-01-21T18:27:26.185Z,3.66
2023-01-21T18:29:53.984Z,3.69
2023-01-21T18:32:21.840Z,3.69
2023-01-21T18:34:49.417Z,3.65
2023-01-21T18:37:19.317Z,3.66
2023-01-21T18:39:48.318Z,3.62
2023-01-21T18:42:18.216Z,3.62
2023-01-21T18:44:46.500Z,3.60
2023-01-21T18:47:19.083Z,3.68
2023-01-21T18:49:49.791Z,3.56
2023-01-21T18:52:20.632Z,3.62
2023-01-21T18:54:47.998Z,3.50
2023-01-21T18:57:18.881Z,3.49
2023-01-21T18:59:45.960Z,3.50
2023-01-21T19:02:19.448Z,3.48
2023-01-21T19:04:47.720Z,3.57
2023-01-21T19:07:16.989Z,3.53
2023-01-21T19:09:47.099Z,3.52
2023-01-21T19:12:17.843Z,3.48
2023-01-21T19:14:45.531Z,3.44
2023-01-21T19:17:14.091Z,3.44
2023-01-21T19:19:41.803Z,3.45
2023-01-21T19:22:14.414Z,3.46
2023-01-21T19:24:41.936Z,3.46
2023-01-21T19:27:28.799Z,3.45
2023-01-21T19:29:56.012Z,3.45
2023-01-21T19:32:23.004Z,3.42
2023-01-21T19:34:50.538Z,3.46
2023-01-21T19:37:22.867Z,3.42
2023-01-21T19:39:49.887Z,3.45
2023-01-21T19:42:17.897Z,3.45
2023-01-21T19:44:44.837Z,3.42
2023-01-21T19:47:19.238Z,3.47
2023-01-21T19:49:46.664Z,3.49
2023-01-21T19:52:14.983Z,3.50
2023-01-21T19:54:42.383Z,3.53
2023-01-21T19:57:15.631Z,3.56
2023-01-21T19:59:44.327Z,3.58
2023-01-21T20:02:12.209Z,3.61
2023-01-21T20:04:39.486Z,3.64
2023-01-21T20:07:07.258Z,3.65
2023-01-21T20:09:34.228Z,3.67
2023-01-21T20:12:03.428Z,3.70
2023-01-21T20:14:33.527Z,3.68
2023-01-21T20:17:02.463Z,3.68
2023-01-21T20:19:29.429Z,3.70
2023-01-21T20:22:02.083Z,3.71
2023-01-21T20:27:18.202Z,3.71
2023-01-21T20:29:55.618Z,3.72
2023-01-21T20:32:23.069Z,3.69
2023-01-21T20:35:03.698Z,3.69
2023-01-21T20:37:31.236Z,3.68
2023-01-21T20:39:58.162Z,3.66
2023-01-21T20:42:27.307Z,3.70
2023-01-21T20:44:55.772Z,3.64
2023-01-21T20:47:32.643Z,3.66
2023-01-21T20:50:17.999Z,3.67
2023-01-21T20:52:45.172Z,3.63
2023-01-21T20:55:13.402Z,3.66
2023-01-21T20:57:41.855Z,3.68
2023-01-21T21:00:21.897Z,3.74
2023-01-21T21:02:51.678Z,3.61
2023-01-21T21:05:19.293Z,3.55
2023-01-21T21:07:46.367Z,3.53
2023-01-21T21:10:21.270Z,3.54
2023-01-21T21:12:49.539Z,3.55
2023-01-21T21:15:17.859Z,3.58
2023-01-21T21:17:47.006Z,3.55
2023-01-21T21:20:21.738Z,3.57
2023-01-21T21:22:49.006Z,3.58
2023-01-21T21:25:26.106Z,3.60
2023-01-21T21:27:54.448Z,3.60
2023-01-21T21:30:23.996Z,3.60
2023-01-21T21:32:50.913Z,3.62
2023-01-21T21:35:35.872Z,3.62
2023-01-21T21:38:15.265Z,3.57
2023-01-21T21:40:46.245Z,3.52
2023-01-21T21:43:38.872Z,3.50
2023-01-21T21:46:30.262Z,3.47
2023-01-21T21:48:57.359Z,3.43
2023-01-21T21:51:24.451Z,3.42
2023-01-21T21:53:51.939Z,3.42
2023-01-21T21:56:23.225Z,3.42
2023-01-21T21:58:52.431Z,3.43
2023-01-21T22:01:27.323Z,3.45
2023-01-21T22:03:55.613Z,3.38
2023-01-21T22:06:22.782Z,3.32
2023-01-21T22:08:50.069Z,3.30
2023-01-21T22:11:20.499Z,3.28
2023-01-21T22:13:50.543Z,3.24
2023-01-21T22:16:23.934Z,3.24
2023-01-21T22:18:52.221Z,3.31
2023-01-21T22:21:26.062Z,3.23
2023-01-21T22:23:54.007Z,3.19
2023-01-21T22:26:24.870Z,3.21
2023-01-21T22:28:53.065Z,3.22
2023-01-21T22:31:23.148Z,3.31
2023-01-21T22:33:51.108Z,3.40
2023-01-21T22:36:21.781Z,3.21
2023-01-21T22:38:49.708Z,3.15
2023-01-21T22:41:20.135Z,3.17
2023-01-21T22:43:48.631Z,3.21
2023-01-21T22:46:30.298Z,3.36
2023-01-21T22:48:58.743Z,3.41
2023-01-21T22:51:26.459Z,3.24
2023-01-21T22:53:54.025Z,3.18
2023-01-21T22:56:39.809Z,3.19
2023-01-21T22:59:18.640Z,3.21
2023-01-21T23:01:54.784Z,3.25
2023-01-21T23:04:25.173Z,3.37
2023-01-21T23:06:54.991Z,3.43
2023-01-21T23:09:22.242Z,3.38
2023-01-21T23:11:49.441Z,3.21
2023-01-21T23:14:17.164Z,3.17
2023-01-21T23:16:44.539Z,3.19
2023-01-21T23:19:12.437Z,3.23
2023-01-21T23:21:39.946Z,3.35
2023-01-21T23:24:07.532Z,3.39
2023-01-21T23:26:34.520Z,3.24
2023-01-21T23:29:01.762Z,3.27
2023-01-21T23:31:29.247Z,3.27
2023-01-21T23:33:57.273Z,3.24
2023-01-21T23:36:24.664Z,3.28
2023-01-21T23:38:51.740Z,3.29
2023-01-21T23:41:20.096Z,3.20
2023-01-21T23:43:47.223Z,3.17
2023-01-21T23:46:19.781Z,3.10
2023-01-21T23:48:46.996Z,3.10
2023-01-21T23:51:15.892Z,3.15
2023-01-21T23:53:43.248Z,3.18
2023-01-21T23:56:18.193Z,3.12
2023-01-21T23:58:45.244Z,3.06
